Time;durP1;ratioP1;P1;durP2;ratioP2;P2;SDS_P1;SDS_P2;PMS_P1;PMS_P2;Temp;Humidity;BMP_temperature;BMP_pressure;BME280_temperature;BME280_humidity;BME280_pressure;Samples;Min_cycle;Max_cycle;Signal;HPM_P1;HPM_P2
2022/09/11 00:01:35;;;;;;;44.35;26.70;;;14.20;99.90;;;;;;5021072;28;20037;-75
2022/09/11 00:04:02;;;;;;;43.38;27.52;;;14.20;99.90;;;;;;5021740;28;20021;-75
2022/09/11 00:06:28;;;;;;;39.47;26.17;;;14.30;99.90;;;;;;5018608;28;20034;-74
2022/09/11 00:08:59;;;;;;;40.42;24.73;;;14.30;99.90;;;;;;5024436;28;20027;-75
2022/09/11 00:11:25;;;;;;;42.08;24.20;;;14.20;99.90;;;;;;5030594;28;20061;-74
2022/09/11 00:13:53;;;;;;;46.67;26.00;;;14.20;99.90;;;;;;5024779;28;20017;-75
2022/09/11 00:16:27;;;;;;;42.45;25.85;;;14.10;99.90;;;;;;5019618;28;20053;-75
2022/09/11 00:18:55;;;;;;;38.35;25.35;;;14.10;99.90;;;;;;5026775;28;20022;-75
2022/09/11 00:21:20;;;;;;;40.58;25.35;;;14.10;99.90;;;;;;5007854;28;20113;-74
2022/09/11 00:23:49;;;;;;;40.42;24.90;;;14.00;99.90;;;;;;5021306;28;20426;-75
2022/09/11 00:26:17;;;;;;;43.65;24.73;;;13.90;99.90;;;;;;5022695;28;20473;-75
2022/09/11 00:28:44;;;;;;;42.92;25.73;;;13.90;99.90;;;;;;5011369;28;20493;-75
2022/09/11 00:31:21;;;;;;;38.67;24.70;;;13.90;99.90;;;;;;5018558;28;20191;-74
2022/09/11 00:33:47;;;;;;;57.15;27.45;;;13.90;99.90;;;;;;5020794;28;20033;-74
2022/09/11 00:36:16;;;;;;;51.97;25.50;;;13.80;99.90;;;;;;5024571;28;20033;-75
2022/09/11 00:38:42;;;;;;;47.10;24.88;;;13.80;99.90;;;;;;5028149;28;20021;-75
2022/09/11 00:41:14;;;;;;;44.65;25.80;;;13.80;99.90;;;;;;5010199;28;20029;-75
2022/09/11 00:43:54;;;;;;;50.20;25.90;;;13.70;99.90;;;;;;5025598;28;20072;-75
2022/09/11 00:46:22;;;;;;;53.78;27.45;;;13.70;99.90;;;;;;5030384;28;20413;-75
2022/09/11 00:48:48;;;;;;;38.08;21.98;;;13.70;99.90;;;;;;5026589;28;20088;-75
2022/09/11 00:51:19;;;;;;;78.43;21.08;;;13.70;99.90;;;;;;5025549;28;20045;-75
2022/09/11 00:53:46;;;;;;;218.82;24.17;;;13.60;99.90;;;;;;5027266;28;20027;-74
2022/09/11 00:56:12;;;;;;;46.22;19.88;;;13.60;99.90;;;;;;5026648;28;20022;-74
2022/09/11 00:58:42;;;;;;;27.48;17.00;;;13.60;99.90;;;;;;5023828;28;20084;-74
2022/09/11 01:01:09;;;;;;;68.30;16.88;;;13.50;99.90;;;;;;5022431;28;20049;-74
2022/09/11 01:03:35;;;;;;;21.13;14.40;;;13.40;99.90;;;;;;5027267;28;20040;-74
2022/09/11 01:06:03;;;;;;;31.75;16.83;;;13.30;99.90;;;;;;5007509;28;20041;-74
2022/09/11 01:08:28;;;;;;;28.92;18.08;;;13.30;99.90;;;;;;5024724;28;20095;-75
2022/09/11 01:11:29;;;;;;;42.70;21.42;;;13.30;99.90;;;;;;5023711;28;20470;-75
2022/09/11 01:14:18;;;;;;;55.20;23.80;;;13.30;99.90;;;;;;5020976;28;20396;-74
2022/09/11 01:16:53;;;;;;;36.67;22.27;;;13.20;99.90;;;;;;5026765;28;20060;-75
2022/09/11 01:19:26;;;;;;;50.60;21.02;;;13.20;99.90;;;;;;5026141;28;20142;-74
2022/09/11 01:21:57;;;;;;;48.95;23.88;;;13.10;99.90;;;;;;5019278;28;20037;-74
2022/09/11 01:25:10;;;;;;;45.05;23.13;;;13.10;99.90;;;;;;5027638;28;20018;-74
2022/09/11 01:27:46;;;;;;;43.40;23.40;;;13.10;99.90;;;;;;4992816;28;20042;-75
2022/09/11 01:30:20;;;;;;;39.65;23.10;;;13.10;99.90;;;;;;5026498;28;20080;-74
2022/09/11 01:33:02;;;;;;;38.92;21.10;;;13.00;99.90;;;;;;5017875;28;20037;-74
2022/09/11 01:35:42;;;;;;;72.57;21.67;;;13.00;99.90;;;;;;5011248;28;20071;-74
2022/09/11 01:38:16;;;;;;;37.67;20.25;;;13.00;99.90;;;;;;5023896;28;20038;-75
2022/09/11 01:40:49;;;;;;;33.75;19.52;;;12.90;99.90;;;;;;5026084;28;20032;-75
2022/09/11 01:43:22;;;;;;;33.15;19.30;;;12.90;99.90;;;;;;5028522;28;20052;-75
2022/09/11 01:45:50;;;;;;;113.88;24.20;;;12.90;99.90;;;;;;5030574;28;20103;-75
2022/09/11 01:48:22;;;;;;;97.75;21.98;;;12.80;99.90;;;;;;5025766;28;20026;-75
2022/09/11 01:50:50;;;;;;;72.47;20.60;;;12.80;99.90;;;;;;5016501;28;20141;-74
2022/09/11 01:53:19;;;;;;;174.80;26.38;;;12.80;99.90;;;;;;5024208;28;20606;-74
2022/09/11 01:55:49;;;;;;;62.92;22.35;;;12.80;99.90;;;;;;5025941;28;20359;-75
2022/09/11 01:58:22;;;;;;;43.60;22.15;;;12.80;99.90;;;;;;5026387;28;20042;-75
2022/09/11 02:00:55;;;;;;;74.07;22.70;;;12.70;99.90;;;;;;5009456;28;20401;-74
2022/09/11 02:03:24;;;;;;;;;;;12.70;99.90;;;;;;5024243;28;20527;-75
2022/09/11 02:05:57;;;;;;;120.13;20.77;;;12.60;99.90;;;;;;5009126;28;19909;-74
2022/09/11 02:08:52;;;;;;;162.75;23.83;;;12.60;99.90;;;;;;5023039;28;20034;-74
2022/09/11 02:11:19;;;;;;;283.20;27.40;;;12.70;99.90;;;;;;5017280;28;20117;-74
2022/09/11 02:13:57;;;;;;;228.65;25.00;;;12.60;99.90;;;;;;5004716;28;20061;-75
2022/09/11 02:17:02;;;;;;;54.92;20.73;;;12.70;99.90;;;;;;5018213;28;20034;-75
2022/09/11 02:19:29;;;;;;;43.92;20.52;;;12.70;99.90;;;;;;5022587;28;20097;-75
2022/09/11 02:21:57;;;;;;;122.97;23.23;;;12.60;99.90;;;;;;5015270;28;20506;-74
2022/09/11 02:24:23;;;;;;;198.88;24.70;;;12.60;99.90;;;;;;5022344;28;20026;-74
2022/09/11 02:26:54;;;;;;;57.53;20.20;;;12.60;99.90;;;;;;5023893;28;20036;-74
2022/09/11 02:29:20;;;;;;;81.40;20.55;;;12.60;99.90;;;;;;5024777;28;20025;-75
2022/09/11 02:31:46;;;;;;;364.92;32.25;;;12.60;99.90;;;;;;5022189;28;20544;-74
2022/09/11 02:34:14;;;;;;;373.17;33.80;;;12.60;99.90;;;;;;5020543;28;20040;-75
2022/09/11 02:36:56;;;;;;;178.77;25.88;;;12.60;99.90;;;;;;5027089;28;21313;-75
2022/09/11 02:39:31;;;;;;;208.65;27.77;;;12.60;99.90;;;;;;5012968;28;20018;-74
2022/09/11 02:42:34;;;;;;;238.57;27.60;;;12.60;99.90;;;;;;5003690;28;20507;-75
2022/09/11 02:45:08;;;;;;;62.55;17.83;;;12.60;99.90;;;;;;5022842;28;20124;-74
2022/09/11 02:47:58;;;;;;;80.65;15.48;;;12.50;99.90;;;;;;5012765;28;20038;-74
2022/09/11 02:50:55;;;;;;;67.22;15.20;;;12.40;99.90;;;;;;5023137;28;20054;-75
2022/09/11 02:53:42;;;;;;;40.50;15.52;;;12.30;99.90;;;;;;5025550;28;20025;-74
2022/09/11 02:56:27;;;;;;;33.20;17.35;;;12.30;99.90;;;;;;5007038;28;20468;-75
2022/09/11 02:58:57;;;;;;;32.15;17.70;;;12.20;99.90;;;;;;5024776;28;20037;-74
2022/09/11 03:01:23;;;;;;;43.45;20.92;;;12.20;99.90;;;;;;5033831;28;20048;-75
2022/09/11 03:03:49;;;;;;;22.50;14.65;;;12.20;99.90;;;;;;5031445;28;20121;-74
2022/09/11 03:06:19;;;;;;;34.10;14.82;;;12.20;99.90;;;;;;5028443;28;20100;-74
2022/09/11 03:08:45;;;;;;;44.15;17.88;;;12.20;99.90;;;;;;5027067;28;20757;-74
2022/09/11 03:11:14;;;;;;;281.30;30.00;;;12.20;99.90;;;;;;5024847;28;20053;-75
2022/09/11 03:13:39;;;;;;;128.98;23.73;;;12.20;99.90;;;;;;5028011;28;20036;-74
2022/09/11 03:16:06;;;;;;;88.15;25.30;;;12.30;99.90;;;;;;5029074;28;20022;-75
2022/09/11 03:18:32;;;;;;;83.13;26.17;;;12.30;99.90;;;;;;5026688;28;20034;-74
2022/09/11 03:20:58;;;;;;;36.22;20.75;;;12.30;99.90;;;;;;5029571;28;20040;-74
2022/09/11 03:23:24;;;;;;;50.92;17.92;;;12.30;99.90;;;;;;5026641;28;20536;-74
2022/09/11 03:25:49;;;;;;;142.55;23.30;;;12.30;99.90;;;;;;5021062;28;20049;-74
2022/09/11 03:28:15;;;;;;;112.13;20.75;;;12.30;99.90;;;;;;5023157;28;20033;-74
2022/09/11 03:30:41;;;;;;;98.85;21.83;;;12.30;99.90;;;;;;5023509;28;20047;-75
2022/09/11 03:33:07;;;;;;;61.38;19.90;;;12.30;99.90;;;;;;5027462;28;20029;-74
2022/09/11 03:35:33;;;;;;;79.15;22.13;;;12.30;99.90;;;;;;5026422;28;20259;-75
2022/09/11 03:37:59;;;;;;;46.53;21.83;;;12.30;99.90;;;;;;5028486;28;20025;-75
2022/09/11 03:40:25;;;;;;;45.90;21.00;;;12.30;99.90;;;;;;5027444;28;20025;-74
2022/09/11 03:42:50;;;;;;;85.60;18.27;;;12.30;99.90;;;;;;5023202;28;20053;-74
2022/09/11 03:45:16;;;;;;;104.50;16.25;;;12.30;99.90;;;;;;5009022;28;20033;-74
2022/09/11 03:47:41;;;;;;;74.82;18.23;;;12.20;99.90;;;;;;4999700;28;20026;-74
2022/09/11 03:50:08;;;;;;;165.82;20.48;;;12.10;99.90;;;;;;5019997;28;20069;-74
2022/09/11 03:52:35;;;;;;;120.70;17.42;;;12.10;99.90;;;;;;5016051;28;20125;-74
2022/09/11 03:55:00;;;;;;;129.38;17.55;;;12.10;99.90;;;;;;5023232;28;20033;-74
2022/09/11 03:57:26;;;;;;;96.80;18.77;;;12.00;99.90;;;;;;5025969;28;20033;-74
2022/09/11 03:59:53;;;;;;;37.75;16.67;;;12.00;99.90;;;;;;5026554;28;20389;-74
2022/09/11 04:02:18;;;;;;;70.30;16.75;;;12.00;99.90;;;;;;5013301;28;20412;-74
2022/09/11 04:04:44;;;;;;;78.25;17.92;;;12.00;99.90;;;;;;5019961;28;20026;-74
2022/09/11 04:07:09;;;;;;;54.63;19.58;;;12.00;99.90;;;;;;5007180;28;20029;-74
2022/09/11 04:09:35;;;;;;;39.72;19.85;;;12.00;99.90;;;;;;5022808;28;20026;-74
2022/09/11 04:12:01;;;;;;;155.68;23.70;;;12.00;99.90;;;;;;5025076;28;20381;-74
2022/09/11 04:14:27;;;;;;;47.72;18.83;;;12.00;99.90;;;;;;5022551;28;20022;-74
2022/09/11 04:16:53;;;;;;;47.63;18.65;;;12.00;99.90;;;;;;5026925;28;20080;-74
2022/09/11 04:19:20;;;;;;;83.75;20.88;;;11.90;99.90;;;;;;5028790;28;20033;-74
2022/09/11 04:21:46;;;;;;;71.07;18.45;;;12.00;99.90;;;;;;5029240;28;20581;-73
2022/09/11 04:24:11;;;;;;;123.97;21.13;;;12.00;99.90;;;;;;5019269;28;20104;-74
2022/09/11 04:26:37;;;;;;;102.05;21.65;;;12.00;99.90;;;;;;5025645;28;20444;-74
2022/09/11 04:29:02;;;;;;;102.82;21.02;;;12.00;99.90;;;;;;5028130;28;20032;-74
2022/09/11 04:31:28;;;;;;;68.38;21.00;;;12.00;99.90;;;;;;5018340;28;20033;-74
2022/09/11 04:33:54;;;;;;;69.68;20.52;;;12.00;99.90;;;;;;5032757;28;20035;-74
2022/09/11 04:36:21;;;;;;;41.83;20.25;;;11.90;99.90;;;;;;5029945;28;20028;-75
2022/09/11 04:38:47;;;;;;;57.92;22.38;;;11.90;99.90;;;;;;5023441;28;20171;-74
2022/09/11 04:41:15;;;;;;;77.20;19.35;;;11.90;99.90;;;;;;5016646;28;20486;-75
2022/09/11 04:43:41;;;;;;;44.05;19.42;;;11.90;99.90;;;;;;5024649;28;20048;-74
2022/09/11 04:46:09;;;;;;;104.18;23.00;;;11.90;99.90;;;;;;5014539;28;20025;-74
2022/09/11 04:48:36;;;;;;;117.10;25.48;;;11.90;99.90;;;;;;5031823;28;20136;-74
2022/09/11 04:51:07;;;;;;;124.60;24.27;;;11.80;99.90;;;;;;5023250;28;20501;-74
2022/09/11 04:53:35;;;;;;;59.22;21.38;;;11.90;99.90;;;;;;5019281;28;20040;-74
2022/09/11 04:56:06;;;;;;;113.65;21.73;;;11.90;99.90;;;;;;5018810;28;20115;-74
2022/09/11 04:58:32;;;;;;;74.72;21.02;;;11.90;99.90;;;;;;5029852;28;20456;-74
2022/09/11 05:00:57;;;;;;;80.53;22.75;;;11.90;99.90;;;;;;5022333;28;20050;-74
2022/09/11 05:03:23;;;;;;;150.07;23.80;;;11.90;99.90;;;;;;5027850;28;20052;-74
2022/09/11 05:05:49;;;;;;;67.72;20.02;;;11.90;99.90;;;;;;5018911;28;20026;-74
2022/09/11 05:08:17;;;;;;;84.30;21.25;;;11.90;99.90;;;;;;5026383;28;20056;-74
2022/09/11 05:10:43;;;;;;;79.35;20.33;;;11.90;99.90;;;;;;5024654;28;20024;-74
2022/09/11 05:13:16;;;;;;;104.55;22.33;;;11.90;99.90;;;;;;5023362;28;20036;-73
2022/09/11 05:15:42;;;;;;;59.17;20.05;;;11.90;99.90;;;;;;5003659;28;20374;-74
2022/09/11 05:18:09;;;;;;;50.95;19.52;;;11.90;99.90;;;;;;5022785;28;20036;-74
2022/09/11 05:20:34;;;;;;;69.72;19.90;;;11.90;99.90;;;;;;5027953;28;20022;-74
2022/09/11 05:23:00;;;;;;;34.47;18.23;;;11.90;99.90;;;;;;5015935;28;20033;-74
2022/09/11 05:25:30;;;;;;;30.98;17.70;;;11.90;99.90;;;;;;5017061;28;20137;-74
2022/09/11 05:27:55;;;;;;;48.03;18.52;;;12.00;99.90;;;;;;5018169;28;20033;-74
2022/09/11 05:30:21;;;;;;;111.82;21.20;;;12.00;99.90;;;;;;5018765;28;20037;-74
2022/09/11 05:32:46;;;;;;;40.00;18.13;;;12.00;99.90;;;;;;5025512;28;20026;-74
2022/09/11 05:35:12;;;;;;;62.95;17.75;;;12.00;99.90;;;;;;5016317;28;20017;-74
2022/09/11 05:37:37;;;;;;;58.60;19.30;;;12.00;99.90;;;;;;5020952;28;20061;-74
2022/09/11 05:40:04;;;;;;;58.15;18.52;;;12.00;99.90;;;;;;5025572;28;20496;-74
2022/09/11 05:42:29;;;;;;;82.72;21.17;;;12.00;99.90;;;;;;5022769;28;20037;-74
2022/09/11 05:44:55;;;;;;;50.65;21.58;;;12.00;99.90;;;;;;5013011;28;20021;-74
2022/09/11 05:47:20;;;;;;;62.50;24.25;;;12.00;99.90;;;;;;5018760;28;20052;-74
2022/09/11 05:49:46;;;;;;;41.20;21.92;;;12.10;99.90;;;;;;5025642;28;20108;-74
2022/09/11 05:52:11;;;;;;;54.85;22.48;;;12.10;99.90;;;;;;5018236;28;20108;-74
2022/09/11 05:54:36;;;;;;;122.05;27.45;;;12.20;99.90;;;;;;5028501;28;20029;-74
2022/09/11 05:57:02;;;;;;;173.15;26.70;;;12.20;99.90;;;;;;5027496;28;20462;-74
2022/09/11 05:59:28;;;;;;;131.73;24.05;;;12.20;99.90;;;;;;5007217;28;20042;-75
2022/09/11 06:01:53;;;;;;;93.97;21.75;;;12.20;99.90;;;;;;5016172;28;20450;-73
2022/09/11 06:04:19;;;;;;;86.25;24.02;;;12.30;99.90;;;;;;5012895;28;20072;-74
2022/09/11 06:06:46;;;;;;;61.20;22.75;;;12.30;99.90;;;;;;5018608;28;20022;-74
2022/09/11 06:09:12;;;;;;;115.50;25.45;;;12.40;99.90;;;;;;5028714;28;20060;-74
2022/09/11 06:11:38;;;;;;;103.30;24.83;;;12.40;99.90;;;;;;5027166;28;20045;-74
2022/09/11 06:14:03;;;;;;;57.05;22.80;;;12.50;99.90;;;;;;5021734;28;20148;-74
2022/09/11 06:16:30;;;;;;;84.35;24.05;;;12.60;99.90;;;;;;5029010;28;20021;-74
2022/09/11 06:18:56;;;;;;;121.68;25.20;;;12.60;99.90;;;;;;5017284;28;20030;-74
2022/09/11 06:21:23;;;;;;;202.13;29.33;;;12.70;99.90;;;;;;5011593;28;20185;-74
2022/09/11 06:23:50;;;;;;;198.48;28.20;;;12.80;99.90;;;;;;5019862;28;20413;-74
2022/09/11 06:26:21;;;;;;;134.50;26.83;;;12.80;99.90;;;;;;5027404;28;20026;-75
2022/09/11 06:28:47;;;;;;;74.07;22.80;;;12.90;99.90;;;;;;5029892;28;20033;-74
2022/09/11 06:31:15;;;;;;;89.55;24.60;;;12.90;99.90;;;;;;5024055;28;20072;-74
2022/09/11 06:33:41;;;;;;;103.38;26.95;;;13.00;99.90;;;;;;5033539;28;20021;-74
2022/09/11 06:36:10;;;;;;;69.90;23.95;;;13.10;99.90;;;;;;5019781;28;20044;-74
2022/09/11 06:38:39;;;;;;;44.05;22.15;;;13.20;99.90;;;;;;5030916;28;20060;-74
2022/09/11 06:41:11;;;;;;;48.85;22.63;;;13.20;99.90;;;;;;5008972;28;20497;-74
2022/09/11 06:43:37;;;;;;;103.15;26.50;;;13.30;99.90;;;;;;5024854;28;20030;-74
2022/09/11 06:46:14;;;;;;;143.73;27.38;;;13.40;99.90;;;;;;5022759;28;20048;-74
2022/09/11 06:48:44;;;;;;;193.07;27.95;;;13.60;99.90;;;;;;5029425;28;20030;-74
2022/09/11 06:51:11;;;;;;;126.97;24.52;;;13.60;99.90;;;;;;5017864;28;20416;-74
2022/09/11 06:53:38;;;;;;;128.13;26.25;;;13.70;99.90;;;;;;5025117;28;20481;-75
2022/09/11 06:56:05;;;;;;;140.05;26.55;;;13.90;99.90;;;;;;5021751;28;20370;-74
2022/09/11 06:58:31;;;;;;;209.50;29.25;;;13.90;99.90;;;;;;5025714;28;20021;-74
2022/09/11 07:01:05;;;;;;;240.02;31.25;;;14.00;99.90;;;;;;5011810;28;20018;-75
2022/09/11 07:03:31;;;;;;;207.95;29.52;;;14.10;99.90;;;;;;5024996;28;20416;-74
2022/09/11 07:05:57;;;;;;;208.05;29.95;;;14.10;99.90;;;;;;5020201;28;20030;-74
2022/09/11 07:08:23;;;;;;;210.38;29.17;;;14.20;99.90;;;;;;5031774;28;20033;-75
2022/09/11 07:10:48;;;;;;;401.33;39.78;;;14.30;99.90;;;;;;5024914;28;20026;-74
2022/09/11 07:13:14;;;;;;;149.00;25.52;;;14.40;99.90;;;;;;5024283;28;20102;-74
2022/09/11 07:15:40;;;;;;;142.93;26.08;;;14.50;99.90;;;;;;5022442;28;20025;-75
2022/09/11 07:18:06;;;;;;;83.43;24.95;;;14.60;99.90;;;;;;5007852;28;20581;-74
2022/09/11 07:20:32;;;;;;;145.95;28.02;;;14.70;99.90;;;;;;5031106;28;20060;-74
2022/09/11 07:22:58;;;;;;;75.65;26.65;;;14.70;99.90;;;;;;5025687;28;20077;-75
2022/09/11 07:25:24;;;;;;;303.88;36.47;;;14.90;99.90;;;;;;5030127;28;20029;-74
2022/09/11 07:27:53;;;;;;;68.15;26.42;;;14.90;99.90;;;;;;5031039;28;20030;-75
2022/09/11 07:30:19;;;;;;;240.73;34.63;;;15.00;99.90;;;;;;5021453;28;20017;-75
2022/09/11 07:32:45;;;;;;;218.77;33.58;;;15.10;99.90;;;;;;5033581;28;20037;-75
2022/09/11 07:35:11;;;;;;;211.65;33.08;;;15.30;99.90;;;;;;5032509;28;20036;-74
2022/09/11 07:37:37;;;;;;;80.53;27.70;;;15.30;99.90;;;;;;5029760;28;20056;-74
2022/09/11 07:40:03;;;;;;;177.02;33.88;;;15.40;99.90;;;;;;5030927;28;20025;-75
2022/09/11 07:42:29;;;;;;;245.75;37.90;;;15.60;99.90;;;;;;5032787;28;20036;-75
2022/09/11 07:44:54;;;;;;;84.88;32.90;;;15.70;99.90;;;;;;5014733;28;20025;-75
2022/09/11 07:47:20;;;;;;;99.03;31.77;;;15.70;99.90;;;;;;5026911;28;20025;-75
2022/09/11 07:49:47;;;;;;;79.07;32.65;;;15.80;99.90;;;;;;5022785;28;20045;-75
2022/09/11 07:52:14;;;;;;;263.38;40.38;;;15.80;99.90;;;;;;5023894;28;20025;-74
2022/09/11 07:54:39;;;;;;;97.95;33.47;;;15.90;99.90;;;;;;5028383;28;20030;-75
2022/09/11 07:57:05;;;;;;;74.07;33.65;;;16.00;99.90;;;;;;5025191;28;20032;-75
2022/09/11 07:59:30;;;;;;;119.93;31.00;;;16.00;99.90;;;;;;5012715;28;20022;-74
2022/09/11 08:01:56;;;;;;;99.82;31.42;;;16.00;99.90;;;;;;5032598;28;20038;-75
2022/09/11 08:04:21;;;;;;;168.23;32.85;;;16.00;99.90;;;;;;5023286;28;20030;-75
2022/09/11 08:06:47;;;;;;;134.75;31.17;;;16.00;99.90;;;;;;5023867;28;20069;-75
2022/09/11 08:09:14;;;;;;;90.88;29.02;;;16.00;99.90;;;;;;5022216;28;20025;-74
2022/09/11 08:11:44;;;;;;;352.95;45.13;;;16.00;99.90;;;;;;5019324;28;20036;-75
2022/09/11 08:14:12;;;;;;;125.22;35.45;;;16.10;99.90;;;;;;5032829;28;20021;-75
2022/09/11 08:16:38;;;;;;;119.90;34.58;;;16.20;99.90;;;;;;5026195;28;20076;-75
2022/09/11 08:19:05;;;;;;;107.68;34.25;;;16.30;99.90;;;;;;5020029;28;20032;-74
2022/09/11 08:21:31;;;;;;;75.88;34.00;;;16.40;99.90;;;;;;5019860;28;20128;-75
2022/09/11 08:23:57;;;;;;;69.43;34.17;;;16.50;99.90;;;;;;5024654;28;20393;-75
2022/09/11 08:26:27;;;;;;;89.35;36.33;;;16.60;99.90;;;;;;5024389;28;20029;-75
2022/09/11 08:28:54;;;;;;;85.75;35.92;;;16.70;99.90;;;;;;5017389;28;20064;-75
2022/09/11 08:31:22;;;;;;;230.05;41.28;;;16.90;99.90;;;;;;5021628;28;20477;-75
2022/09/11 08:33:50;;;;;;;266.05;43.33;;;17.10;99.90;;;;;;5011425;28;20507;-75
2022/09/11 08:36:16;;;;;;;136.77;37.80;;;17.10;99.90;;;;;;5019033;28;20072;-75
2022/09/11 08:38:42;;;;;;;65.43;34.67;;;17.20;99.90;;;;;;5024584;28;20057;-75
2022/09/11 08:41:27;;;;;;;70.97;37.58;;;17.30;99.90;;;;;;5032816;28;20491;-75
2022/09/11 08:43:56;;;;;;;68.80;36.85;;;17.40;99.90;;;;;;5033638;28;20029;-75
2022/09/11 08:46:29;;;;;;;81.75;38.30;;;17.50;99.90;;;;;;5008559;28;20428;-75
2022/09/11 08:49:01;;;;;;;80.65;39.50;;;17.60;99.90;;;;;;5032480;28;20128;-75
2022/09/11 08:51:26;;;;;;;72.70;40.75;;;17.60;99.90;;;;;;5030191;28;20108;-75
2022/09/11 08:53:55;;;;;;;70.22;40.40;;;17.60;99.90;;;;;;5032610;28;20104;-74
2022/09/11 08:56:23;;;;;;;73.97;42.10;;;17.80;99.90;;;;;;5024649;28;20389;-75
2022/09/11 08:59:00;;;;;;;109.65;45.53;;;17.90;99.90;;;;;;5023727;28;20034;-75
2022/09/11 09:01:51;;;;;;;66.97;42.92;;;18.10;99.90;;;;;;5026012;28;20026;-75
2022/09/11 09:04:50;;;;;;;60.95;40.97;;;18.20;99.90;;;;;;5018508;28;20018;-75
2022/09/11 09:07:37;;;;;;;59.42;39.20;;;18.50;99.90;;;;;;5028803;28;20021;-75
2022/09/11 09:10:21;;;;;;;59.00;40.80;;;18.70;99.90;;;;;;5027220;28;20389;-75
2022/09/11 09:13:01;;;;;;;57.03;38.85;;;18.90;99.90;;;;;;5020289;28;20033;-75
2022/09/11 09:16:01;;;;;;;53.28;39.15;;;19.20;99.90;;;;;;5009091;28;20033;-75
2022/09/11 09:18:31;;;;;;;52.40;37.55;;;19.40;99.90;;;;;;5020789;28;20030;-75
2022/09/11 09:21:09;;;;;;;49.42;36.10;;;19.60;99.90;;;;;;5015515;28;20362;-75
2022/09/11 09:23:44;;;;;;;46.10;36.75;;;19.80;99.90;;;;;;5027189;28;20045;-75
2022/09/11 09:26:17;;;;;;;41.38;33.92;;;19.80;99.90;;;;;;5013420;28;20048;-75
2022/09/11 09:28:46;;;;;;;43.25;33.47;;;19.70;99.90;;;;;;5031745;28;20021;-75
2022/09/11 09:31:16;;;;;;;43.20;34.47;;;19.80;99.90;;;;;;5021955;28;20033;-75
2022/09/11 09:33:50;;;;;;;37.60;31.92;;;19.80;99.90;;;;;;5010616;28;20157;-75
2022/09/11 09:36:22;;;;;;;37.97;31.45;;;20.00;99.90;;;;;;5017116;28;20489;-76
2022/09/11 09:38:48;;;;;;;37.58;31.67;;;20.10;99.90;;;;;;5004695;28;20484;-75
2022/09/11 09:41:43;;;;;;;36.88;30.27;;;20.10;99.90;;;;;;5022225;28;20029;-75
2022/09/11 09:44:18;;;;;;;32.20;27.40;;;20.20;99.90;;;;;;5027886;28;20037;-75
2022/09/11 09:46:47;;;;;;;33.42;28.75;;;20.30;99.90;;;;;;5028554;28;20030;-75
2022/09/11 09:49:22;;;;;;;32.67;28.55;;;20.30;99.90;;;;;;5022022;28;20037;-75
2022/09/11 09:51:50;;;;;;;31.48;27.38;;;20.40;99.90;;;;;;5019215;28;20021;-75
2022/09/11 09:54:18;;;;;;;29.67;25.58;;;20.40;99.90;;;;;;5017652;28;20063;-75
2022/09/11 09:56:52;;;;;;;28.08;25.15;;;20.50;99.90;;;;;;5023584;28;20060;-75
2022/09/11 09:59:31;;;;;;;26.83;21.95;;;20.70;99.90;;;;;;5028697;28;20021;-75
2022/09/11 10:01:57;;;;;;;22.40;19.55;;;20.80;99.90;;;;;;5032644;28;20033;-76
2022/09/11 10:04:29;;;;;;;20.48;18.38;;;20.80;99.90;;;;;;5029295;28;20388;-75
2022/09/11 10:07:10;;;;;;;21.48;17.85;;;20.90;99.90;;;;;;5013411;28;20455;-74
2022/09/11 10:09:44;;;;;;;17.70;15.90;;;21.00;99.90;;;;;;5025416;28;20103;-75
2022/09/11 10:12:16;;;;;;;19.27;15.80;;;21.00;99.90;;;;;;5023098;28;20037;-75
2022/09/11 10:14:50;;;;;;;19.65;17.05;;;21.00;99.90;;;;;;5024489;28;20041;-75
2022/09/11 10:17:22;;;;;;;19.95;16.95;;;21.00;99.90;;;;;;5015386;28;20036;-75
2022/09/11 10:19:55;;;;;;;16.75;14.65;;;20.80;99.90;;;;;;5029065;28;20030;-75
2022/09/11 10:22:31;;;;;;;16.52;13.05;;;20.80;99.90;;;;;;5014713;28;20033;-75
2022/09/11 10:25:04;;;;;;;14.13;12.63;;;20.80;99.90;;;;;;5018512;28;20022;-75
2022/09/11 10:27:34;;;;;;;12.43;9.85;;;20.90;99.90;;;;;;5016118;28;20029;-75
2022/09/11 10:30:03;;;;;;;11.82;8.85;;;20.90;99.90;;;;;;5028197;28;20022;-75
2022/09/11 10:32:30;;;;;;;7.72;6.93;;;21.00;99.90;;;;;;5022174;28;20416;-73
2022/09/11 10:34:57;;;;;;;7.63;5.85;;;20.90;99.90;;;;;;5025890;28;20025;-75
2022/09/11 10:37:26;;;;;;;8.95;7.45;;;20.90;99.90;;;;;;5027477;28;20397;-75
2022/09/11 10:40:01;;;;;;;9.18;7.63;;;20.80;99.90;;;;;;5002753;28;20030;-75
2022/09/11 10:42:30;;;;;;;13.65;10.20;;;20.70;99.90;;;;;;5002669;28;20389;-75
2022/09/11 10:45:10;;;;;;;14.02;11.40;;;20.70;99.90;;;;;;5023966;28;20460;-75
2022/09/11 10:47:36;;;;;;;13.35;11.35;;;20.80;99.90;;;;;;5031370;28;20481;-75
2022/09/11 10:50:17;;;;;;;11.40;10.18;;;20.80;99.90;;;;;;5023907;28;20050;-75
2022/09/11 10:53:04;;;;;;;13.68;12.02;;;21.00;99.90;;;;;;5024846;28;20034;-75
2022/09/11 10:55:40;;;;;;;11.57;10.38;;;21.10;99.90;;;;;;5014737;28;20129;-75
2022/09/11 10:58:15;;;;;;;10.65;9.55;;;21.20;99.90;;;;;;5018919;28;20068;-75
2022/09/11 11:00:40;;;;;;;10.77;9.70;;;21.30;99.90;;;;;;5026374;28;20061;-75
2022/09/11 11:03:16;;;;;;;12.27;11.15;;;21.40;99.90;;;;;;5028328;28;20489;-75
2022/09/11 11:06:15;;;;;;;12.93;11.48;;;21.50;99.90;;;;;;5024957;28;20048;-76
2022/09/11 11:09:26;;;;;;;13.38;11.48;;;21.60;99.90;;;;;;5026193;28;20036;-75
2022/09/11 11:12:21;;;;;;;11.15;10.05;;;21.60;99.90;;;;;;5034571;28;20551;-76
2022/09/11 11:14:56;;;;;;;12.80;10.55;;;21.80;99.90;;;;;;5022596;28;20032;-75
2022/09/11 11:17:36;;;;;;;14.82;9.82;;;21.90;99.90;;;;;;5035741;28;20028;-75
2022/09/11 11:20:15;;;;;;;12.45;9.20;;;22.00;99.90;;;;;;5033030;28;20034;-76
2022/09/11 11:23:08;;;;;;;10.82;9.65;;;22.10;99.90;;;;;;5006705;28;20489;-75
2022/09/11 11:25:56;;;;;;;10.90;8.88;;;22.20;99.90;;;;;;5017111;28;20032;-76
2022/09/11 11:28:59;;;;;;;11.77;10.45;;;22.20;99.90;;;;;;5018512;28;20545;-75
2022/09/11 11:31:33;;;;;;;12.02;9.25;;;22.30;99.90;;;;;;5021553;28;20048;-76
2022/09/11 11:34:39;;;;;;;11.00;8.63;;;22.40;99.90;;;;;;5029377;28;20393;-76
2022/09/11 11:37:10;;;;;;;10.23;9.13;;;22.60;99.90;;;;;;5019172;28;20129;-75
2022/09/11 11:40:01;;;;;;;8.77;7.57;;;22.70;99.90;;;;;;5028407;28;20033;-75
2022/09/11 11:42:33;;;;;;;10.73;7.47;;;23.00;99.90;;;;;;5030095;28;20034;-75
2022/09/11 11:45:04;;;;;;;8.68;7.05;;;23.00;99.90;;;;;;5022609;28;20079;-75
2022/09/11 11:47:35;;;;;;;10.68;9.25;;;23.00;99.90;;;;;;5029225;28;20485;-75
2022/09/11 11:50:15;;;;;;;12.48;11.20;;;22.90;99.90;;;;;;5013234;28;20157;-75
2022/09/11 11:53:09;;;;;;;14.48;11.88;;;22.90;99.90;;;;;;5012520;28;20030;-76
2022/09/11 11:55:59;;;;;;;10.43;9.32;;;22.80;99.90;;;;;;5009701;28;20498;-75
2022/09/11 11:58:57;;;;;;;14.10;9.18;;;22.60;99.90;;;;;;5007409;28;20042;-75
2022/09/11 12:01:38;;;;;;;10.65;8.30;;;22.50;99.90;;;;;;4982322;28;20030;-75
2022/09/11 12:04:25;;;;;;;9.40;8.40;;;22.60;99.90;;;;;;5013339;28;20026;-76
2022/09/11 12:06:51;;;;;;;13.00;10.27;;;22.70;99.90;;;;;;5011221;28;20529;-75
2022/09/11 12:09:17;;;;;;;12.73;10.35;;;22.70;99.90;;;;;;5013300;28;20037;-75
2022/09/11 12:11:47;;;;;;;10.20;8.70;;;22.60;99.90;;;;;;5008777;28;20029;-75
2022/09/11 12:14:28;;;;;;;10.00;8.55;;;22.60;99.90;;;;;;5012642;28;20077;-75
2022/09/11 12:16:55;;;;;;;11.13;9.07;;;22.60;99.90;;;;;;5005976;28;20046;-75
2022/09/11 12:19:24;;;;;;;10.93;9.80;;;22.50;99.90;;;;;;5011214;28;20037;-75
2022/09/11 12:22:09;;;;;;;11.27;9.00;;;22.30;99.90;;;;;;5001044;28;20124;-75
2022/09/11 12:24:57;;;;;;;8.70;7.68;;;22.30;99.90;;;;;;5012318;28;20450;-75
2022/09/11 12:27:35;;;;;;;10.40;8.15;;;22.30;99.90;;;;;;5012560;28;20028;-76
2022/09/11 12:30:27;;;;;;;10.52;8.68;;;22.40;99.90;;;;;;5007815;28;20038;-75
2022/09/11 12:32:57;;;;;;;10.98;8.45;;;22.50;99.90;;;;;;5010987;28;20037;-75
2022/09/11 12:35:59;;;;;;;8.77;7.78;;;22.60;99.90;;;;;;5011166;28;20449;-75
2022/09/11 12:38:43;;;;;;;10.15;7.32;;;22.70;99.90;;;;;;4934447;29;20476;-75
2022/09/11 12:41:16;;;;;;;8.02;7.20;;;22.80;99.90;;;;;;5007129;28;20042;-75
2022/09/11 12:43:41;;;;;;;7.97;6.53;;;22.90;99.90;;;;;;5011920;28;20124;-75
2022/09/11 12:46:33;;;;;;;9.02;6.15;;;23.00;99.90;;;;;;5008202;28;20073;-75
2022/09/11 12:49:05;;;;;;;9.60;7.88;;;23.10;99.90;;;;;;4975098;28;20052;-76